Time;durP1;ratioP1;P1;durP2;ratioP2;P2;SDS_P1;SDS_P2;PMS_P1;PMS_P2;Temp;Humidity;BMP_temperature;BMP_pressure;BME280_temperature;BME280_humidity;BME280_pressure;Samples;Min_cycle;Max_cycle;Signal;HPM_P1;HPM_P2
2022/03/06 00:00:50;;;;;;;17.88;10.80;;;-0.40;43.30;;;;;;5010296;28;20651;-64
2022/03/06 00:03:17;;;;;;;15.98;10.63;;;-0.40;42.90;;;;;;5029496;28;20545;-68
2022/03/06 00:05:45;;;;;;;22.83;10.70;;;-0.40;42.80;;;;;;5029359;28;20195;-65
2022/03/06 00:08:12;;;;;;;21.52;12.18;;;-0.50;42.90;;;;;;5029195;28;20194;-63
2022/03/06 00:10:39;;;;;;;20.02;10.43;;;-0.50;43.70;;;;;;5029390;28;20191;-64
2022/03/06 00:13:06;;;;;;;19.20;10.23;;;-0.50;43.80;;;;;;5010487;28;20305;-64
2022/03/06 00:15:33;;;;;;;18.95;11.85;;;-0.50;43.60;;;;;;5009804;28;20354;-64
2022/03/06 00:18:00;;;;;;;20.40;11.23;;;-0.60;44.40;;;;;;5030044;28;20191;-63
2022/03/06 00:20:27;;;;;;;18.80;11.02;;;-0.60;43.90;;;;;;5032939;28;20202;-64
2022/03/06 00:22:56;;;;;;;21.90;11.80;;;-0.70;43.80;;;;;;5016490;28;20196;-63
2022/03/06 00:25:23;;;;;;;22.33;13.25;;;-0.70;44.10;;;;;;5013248;28;20192;-63
2022/03/06 00:27:50;;;;;;;24.33;11.55;;;-0.70;44.10;;;;;;5027066;28;20187;-64
2022/03/06 00:30:17;;;;;;;20.30;11.32;;;-0.80;44.80;;;;;;5019662;28;20258;-63
2022/03/06 00:32:44;;;;;;;25.85;12.55;;;-0.90;44.80;;;;;;5012758;28;20211;-64
2022/03/06 00:35:11;;;;;;;22.70;11.55;;;-0.80;45.30;;;;;;5023952;28;20191;-63
2022/03/06 00:37:38;;;;;;;23.98;12.45;;;-0.80;45.30;;;;;;5032574;28;20646;-63
2022/03/06 00:40:08;;;;;;;22.35;12.38;;;-0.90;45.60;;;;;;5022165;28;20198;-63
2022/03/06 00:42:36;;;;;;;22.70;12.32;;;-0.90;45.70;;;;;;5012677;28;20540;-64
2022/03/06 00:45:04;;;;;;;25.50;11.55;;;-1.00;45.40;;;;;;5020976;28;20230;-63
2022/03/06 00:47:31;;;;;;;20.42;10.60;;;-1.00;45.20;;;;;;5032333;28;20232;-63
2022/03/06 00:49:59;;;;;;;22.55;11.90;;;-1.00;45.70;;;;;;5023729;28;20223;-63
2022/03/06 00:52:26;;;;;;;25.13;11.82;;;-1.00;45.60;;;;;;5012278;28;20584;-63
2022/03/06 00:54:53;;;;;;;18.20;11.27;;;-1.00;45.40;;;;;;5018497;28;20183;-64
2022/03/06 00:57:22;;;;;;;23.08;11.18;;;-1.00;45.40;;;;;;5026954;28;20184;-64
2022/03/06 00:59:49;;;;;;;19.45;10.90;;;-1.00;45.90;;;;;;5012218;28;20204;-63
2022/03/06 01:02:16;;;;;;;23.63;12.57;;;-1.00;45.50;;;;;;5015498;28;20194;-64
2022/03/06 01:04:43;;;;;;;20.70;11.38;;;-1.10;44.80;;;;;;5031796;28;20187;-64
2022/03/06 01:07:10;;;;;;;19.40;10.68;;;-1.10;44.70;;;;;;5029178;28;20661;-64
2022/03/06 01:09:37;;;;;;;16.20;9.90;;;-1.10;44.80;;;;;;5011860;28;20219;-63
2022/03/06 01:12:05;;;;;;;20.00;10.73;;;-1.10;45.00;;;;;;5012102;28;20999;-63
2022/03/06 01:14:33;;;;;;;16.23;10.00;;;-1.20;45.30;;;;;;5031277;28;20578;-63
2022/03/06 01:17:00;;;;;;;17.40;8.85;;;-1.30;46.10;;;;;;5031067;28;20522;-64
2022/03/06 01:19:27;;;;;;;23.35;10.90;;;-1.30;46.30;;;;;;5011286;28;20192;-63
2022/03/06 01:21:59;;;;;;;18.40;9.88;;;-1.30;46.20;;;;;;5011326;28;20196;-63
2022/03/06 01:24:26;;;;;;;18.08;10.90;;;-1.40;46.10;;;;;;5030170;28;20925;-64
2022/03/06 01:26:53;;;;;;;18.70;8.98;;;-1.40;46.10;;;;;;5013555;28;20250;-63
2022/03/06 01:29:22;;;;;;;24.63;9.57;;;-1.50;46.10;;;;;;5010702;28;20226;-63
2022/03/06 01:31:51;;;;;;;17.30;9.98;;;-1.50;46.80;;;;;;5026651;28;20278;-63
2022/03/06 01:34:18;;;;;;;17.40;9.40;;;-1.50;47.20;;;;;;5030660;28;20280;-63
2022/03/06 01:36:45;;;;;;;14.98;9.05;;;-1.50;47.40;;;;;;5015226;28;20246;-64
2022/03/06 01:39:12;;;;;;;17.23;10.25;;;-1.50;47.50;;;;;;5010885;28;20650;-63
2022/03/06 01:41:39;;;;;;;17.60;10.25;;;-1.50;47.70;;;;;;5024191;28;20551;-63
2022/03/06 01:44:12;;;;;;;19.52;9.30;;;-1.50;47.80;;;;;;5030556;28;20211;-63
2022/03/06 01:46:39;;;;;;;15.20;7.75;;;-1.50;47.30;;;;;;5017456;28;20539;-63
2022/03/06 01:49:07;;;;;;;15.57;8.68;;;-1.50;46.90;;;;;;5010123;28;20693;-64
2022/03/06 01:51:34;;;;;;;15.65;8.10;;;-1.50;47.10;;;;;;5021980;28;20283;-63
2022/03/06 01:54:01;;;;;;;13.45;8.07;;;-1.60;47.20;;;;;;5020187;28;20191;-63
2022/03/06 01:56:29;;;;;;;16.50;8.40;;;-1.60;47.50;;;;;;5010359;28;20662;-64
2022/03/06 01:58:56;;;;;;;20.15;10.23;;;-1.70;47.80;;;;;;5012162;28;20208;-63
2022/03/06 02:01:23;;;;;;;18.88;8.55;;;-1.70;47.80;;;;;;5010278;28;20643;-64
2022/03/06 02:03:51;;;;;;;17.30;9.35;;;-1.80;47.70;;;;;;5016841;28;20183;-63
2022/03/06 02:06:19;;;;;;;20.45;10.23;;;-1.80;47.80;;;;;;5029859;28;20650;-63
2022/03/06 02:08:48;;;;;;;16.30;8.43;;;-1.80;48.10;;;;;;5023725;28;20253;-63
2022/03/06 02:11:16;;;;;;;17.70;9.75;;;-1.90;47.50;;;;;;5011632;28;20198;-64
2022/03/06 02:13:43;;;;;;;18.40;8.85;;;-1.90;47.70;;;;;;5015730;28;20674;-63
2022/03/06 02:16:15;;;;;;;16.77;10.30;;;-1.90;48.40;;;;;;5030722;28;20286;-64
2022/03/06 02:18:42;;;;;;;16.35;8.82;;;-2.00;48.80;;;;;;5025184;28;20246;-63
2022/03/06 02:21:12;;;;;;;14.40;8.05;;;-2.00;48.50;;;;;;5009920;28;20191;-64
2022/03/06 02:23:39;;;;;;;16.85;9.15;;;-2.10;48.40;;;;;;5012737;28;20182;-63
2022/03/06 02:26:08;;;;;;;17.48;9.85;;;-2.10;48.80;;;;;;5030943;28;20260;-63
2022/03/06 02:28:35;;;;;;;15.30;9.43;;;-2.10;49.50;;;;;;5027385;28;20192;-63
2022/03/06 02:31:03;;;;;;;18.98;10.45;;;-2.20;49.00;;;;;;5009882;28;20230;-63
2022/03/06 02:33:30;;;;;;;14.55;7.93;;;-2.20;49.30;;;;;;5010595;28;20195;-63
2022/03/06 02:35:57;;;;;;;18.75;10.00;;;-2.20;48.80;;;;;;5029298;28;20245;-64
2022/03/06 02:38:26;;;;;;;19.27;9.93;;;-2.20;48.70;;;;;;5029157;28;20194;-65
2022/03/06 02:40:54;;;;;;;23.70;9.60;;;-2.20;49.10;;;;;;5026501;28;20229;-64
2022/03/06 02:43:21;;;;;;;15.60;9.23;;;-2.20;48.90;;;;;;5009252;28;20202;-64
2022/03/06 02:45:49;;;;;;;17.65;9.40;;;-2.30;48.90;;;;;;5025926;28;20637;-63
2022/03/06 02:48:17;;;;;;;23.13;10.40;;;-2.30;49.10;;;;;;5027044;28;20205;-63
2022/03/06 02:50:44;;;;;;;18.00;9.15;;;-2.30;49.00;;;;;;5008889;28;20242;-63
2022/03/06 02:53:12;;;;;;;13.75;8.68;;;-2.40;48.30;;;;;;5009294;28;20202;-63
2022/03/06 02:55:42;;;;;;;16.00;8.23;;;-2.50;48.30;;;;;;5028646;28;20262;-64
2022/03/06 02:58:09;;;;;;;14.70;9.25;;;-2.60;48.60;;;;;;5028672;28;20191;-64
2022/03/06 03:00:37;;;;;;;19.90;9.77;;;-2.70;49.40;;;;;;5028085;28;20219;-64
2022/03/06 03:03:04;;;;;;;19.33;8.90;;;-2.70;49.60;;;;;;5028563;28;20653;-63
2022/03/06 03:05:31;;;;;;;16.30;9.00;;;-2.70;49.90;;;;;;5009654;28;20214;-63
2022/03/06 03:07:58;;;;;;;19.73;11.38;;;-2.70;50.50;;;;;;5008567;28;20230;-63
2022/03/06 03:10:29;;;;;;;26.50;12.00;;;-2.70;50.50;;;;;;5025431;28;20195;-63
2022/03/06 03:12:58;;;;;;;17.45;9.35;;;-2.70;50.90;;;;;;5019525;28;20192;-63
2022/03/06 03:15:25;;;;;;;20.13;10.50;;;-2.70;51.30;;;;;;5008350;28;20219;-63
2022/03/06 03:17:52;;;;;;;18.05;9.38;;;-2.70;51.60;;;;;;5015376;28;20186;-63
2022/03/06 03:20:19;;;;;;;16.75;9.25;;;-2.60;51.80;;;;;;5028272;28;20222;-63
2022/03/06 03:22:47;;;;;;;19.60;10.75;;;-2.50;51.90;;;;;;5022150;28;20270;-64
2022/03/06 03:25:14;;;;;;;19.33;9.85;;;-2.50;52.10;;;;;;5008607;28;20188;-63
2022/03/06 03:27:42;;;;;;;18.55;10.45;;;-2.50;51.80;;;;;;5013023;28;20191;-64
2022/03/06 03:30:11;;;;;;;15.93;9.43;;;-2.50;51.70;;;;;;5027979;28;20195;-64
2022/03/06 03:32:44;;;;;;;20.00;9.50;;;-2.50;51.70;;;;;;5023628;28;20187;-64
2022/03/06 03:35:11;;;;;;;18.23;10.93;;;-2.50;52.00;;;;;;5008587;28;20313;-63
2022/03/06 03:37:38;;;;;;;21.52;10.02;;;-2.50;52.30;;;;;;5009276;28;20183;-64
2022/03/06 03:40:07;;;;;;;23.88;12.02;;;-2.50;52.30;;;;;;5019247;28;20663;-63
2022/03/06 03:42:34;;;;;;;18.85;10.13;;;-2.50;52.10;;;;;;5008697;28;20501;-63
2022/03/06 03:45:01;;;;;;;19.92;11.05;;;-2.50;52.10;;;;;;5009165;28;20270;-63
2022/03/06 03:47:29;;;;;;;21.45;12.52;;;-2.40;52.70;;;;;;5028130;28;20578;-63
2022/03/06 03:49:56;;;;;;;17.23;9.63;;;-2.40;52.80;;;;;;5027049;28;20630;-64
2022/03/06 03:52:23;;;;;;;19.42;10.20;;;-2.40;52.30;;;;;;5011336;28;20200;-63
2022/03/06 03:54:50;;;;;;;17.08;9.80;;;-2.40;51.80;;;;;;5011968;28;20632;-63
2022/03/06 03:57:18;;;;;;;15.90;9.13;;;-2.40;51.60;;;;;;5030325;28;20245;-64
2022/03/06 03:59:45;;;;;;;20.75;10.05;;;-2.50;51.70;;;;;;5032353;28;20215;-63
2022/03/06 04:02:12;;;;;;;16.30;9.30;;;-2.50;52.20;;;;;;5015615;28;20195;-63
2022/03/06 04:04:40;;;;;;;16.63;8.02;;;-2.70;52.80;;;;;;5013340;28;20203;-63
2022/03/06 04:07:07;;;;;;;18.90;9.85;;;-2.70;53.30;;;;;;5029124;28;20209;-64
2022/03/06 04:09:34;;;;;;;19.08;10.50;;;-2.70;53.10;;;;;;5033219;28;20199;-63
2022/03/06 04:12:03;;;;;;;17.75;11.02;;;-2.70;53.20;;;;;;5017818;28;20254;-63
2022/03/06 04:14:30;;;;;;;19.23;10.07;;;-2.70;53.80;;;;;;5013240;28;20239;-64
2022/03/06 04:16:57;;;;;;;17.95;9.38;;;-2.70;54.00;;;;;;5026411;28;20676;-63
2022/03/06 04:19:24;;;;;;;21.20;10.23;;;-2.70;53.80;;;;;;5032697;28;20604;-63
2022/03/06 04:21:52;;;;;;;17.42;8.60;;;-2.70;53.70;;;;;;5020224;28;20187;-64
2022/03/06 04:24:19;;;;;;;16.00;9.43;;;-2.60;53.20;;;;;;5012869;28;20254;-64
2022/03/06 04:26:46;;;;;;;19.52;9.73;;;-2.70;52.80;;;;;;5023814;28;20194;-63
2022/03/06 04:29:13;;;;;;;21.15;10.52;;;-2.60;52.70;;;;;;5032865;28;20273;-63
2022/03/06 04:31:40;;;;;;;24.13;10.40;;;-2.70;52.80;;;;;;5014528;28;20713;-64
2022/03/06 04:34:07;;;;;;;16.50;9.50;;;-2.60;52.40;;;;;;5013303;28;20294;-63
2022/03/06 04:36:34;;;;;;;18.60;9.95;;;-2.70;52.40;;;;;;5028795;28;20218;-63
2022/03/06 04:39:03;;;;;;;19.63;9.82;;;-2.70;52.30;;;;;;5032588;28;20264;-63
2022/03/06 04:41:31;;;;;;;22.10;10.02;;;-2.90;52.90;;;;;;5027099;28;20218;-63
2022/03/06 04:43:58;;;;;;;19.30;9.63;;;-2.90;53.10;;;;;;5032185;28;20201;-63
2022/03/06 04:46:25;;;;;;;19.73;9.98;;;-2.90;52.90;;;;;;5017861;28;20188;-63
2022/03/06 04:48:52;;;;;;;22.27;12.38;;;-2.80;52.80;;;;;;5014506;28;20280;-63
2022/03/06 04:51:19;;;;;;;16.17;8.93;;;-2.90;52.70;;;;;;5032295;28;20191;-63
2022/03/06 04:53:46;;;;;;;15.70;9.60;;;-2.80;52.70;;;;;;5030496;28;20195;-63
2022/03/06 04:56:15;;;;;;;12.88;8.30;;;-2.80;52.40;;;;;;5012265;28;20196;-64
2022/03/06 04:58:45;;;;;;;16.83;9.48;;;-2.80;52.00;;;;;;5011807;28;20196;-65
2022/03/06 05:01:16;;;;;;;23.75;10.85;;;-2.80;51.90;;;;;;5012263;28;20294;-63
2022/03/06 05:03:43;;;;;;;26.90;12.43;;;-2.80;52.00;;;;;;5011118;28;20289;-65
2022/03/06 05:06:10;;;;;;;15.77;9.20;;;-2.80;52.10;;;;;;5031350;28;20563;-63
2022/03/06 05:08:37;;;;;;;14.50;8.65;;;-2.80;52.50;;;;;;5031730;28;20610;-63
2022/03/06 05:11:04;;;;;;;21.25;10.90;;;-2.90;53.20;;;;;;5013026;28;20183;-64
2022/03/06 05:13:33;;;;;;;19.67;10.45;;;-2.90;52.70;;;;;;5012404;28;20613;-63
2022/03/06 05:16:00;;;;;;;15.57;9.13;;;-3.00;52.60;;;;;;5028467;28;20744;-63
2022/03/06 05:18:27;;;;;;;19.17;9.85;;;-3.00;52.70;;;;;;5016794;28;20236;-63
2022/03/06 05:20:54;;;;;;;21.15;11.70;;;-3.10;52.90;;;;;;5011540;28;20256;-63
2022/03/06 05:23:21;;;;;;;19.23;10.25;;;-3.00;53.30;;;;;;5024300;28;20294;-64
2022/03/06 05:25:48;;;;;;;23.52;10.88;;;-3.00;53.40;;;;;;5031171;28;20333;-64
2022/03/06 05:28:15;;;;;;;16.58;9.10;;;-3.00;53.00;;;;;;5018754;28;20253;-63
2022/03/06 05:30:44;;;;;;;20.13;9.20;;;-3.00;52.60;;;;;;5011410;28;20191;-64
2022/03/06 05:33:11;;;;;;;21.27;11.25;;;-3.00;53.10;;;;;;5021633;28;20187;-63
2022/03/06 05:35:38;;;;;;;21.50;11.23;;;-3.00;54.10;;;;;;5030975;28;20187;-63
2022/03/06 05:38:05;;;;;;;24.50;11.50;;;-3.00;54.50;;;;;;5021099;28;20188;-63
2022/03/06 05:40:32;;;;;;;19.58;10.55;;;-3.00;54.50;;;;;;5010903;28;20215;-63
2022/03/06 05:42:59;;;;;;;20.23;11.52;;;-3.00;55.00;;;;;;5018529;28;20217;-63
2022/03/06 05:45:26;;;;;;;20.13;11.45;;;-3.00;54.70;;;;;;5024603;28;20192;-63
2022/03/06 05:47:55;;;;;;;20.10;10.52;;;-3.00;54.60;;;;;;5010905;28;20195;-63
2022/03/06 05:50:22;;;;;;;21.35;10.25;;;-3.00;54.50;;;;;;5015574;28;20198;-63
2022/03/06 05:52:50;;;;;;;22.25;11.50;;;-3.10;54.60;;;;;;5019103;28;20278;-63
2022/03/06 05:55:17;;;;;;;18.73;11.40;;;-3.00;55.30;;;;;;5021889;28;20270;-64
2022/03/06 05:57:45;;;;;;;21.40;11.38;;;-3.10;55.70;;;;;;5028441;28;20200;-64
2022/03/06 06:00:13;;;;;;;18.35;9.82;;;-3.00;55.30;;;;;;5027558;28;20274;-64
2022/03/06 06:02:40;;;;;;;22.45;11.52;;;-3.10;55.60;;;;;;5028333;28;20191;-64
2022/03/06 06:05:10;;;;;;;16.77;9.98;;;-3.10;56.10;;;;;;5027551;28;20547;-64
2022/03/06 06:07:37;;;;;;;22.52;10.75;;;-3.10;56.30;;;;;;5028592;28;20279;-64
2022/03/06 06:10:06;;;;;;;19.00;11.10;;;-3.10;56.50;;;;;;5027613;28;20187;-65
2022/03/06 06:12:33;;;;;;;20.83;10.68;;;-3.00;56.50;;;;;;5028206;28;20222;-64
2022/03/06 06:15:00;;;;;;;18.95;10.35;;;-2.80;56.60;;;;;;5028424;28;20259;-65
2022/03/06 06:17:27;;;;;;;23.38;11.07;;;-2.80;56.50;;;;;;5027804;28;20294;-63
2022/03/06 06:19:54;;;;;;;20.77;11.32;;;-2.70;56.60;;;;;;5027778;28;20254;-64
2022/03/06 06:22:23;;;;;;;21.30;11.95;;;-2.70;56.50;;;;;;5025167;28;20191;-63
2022/03/06 06:24:50;;;;;;;26.88;11.57;;;-2.70;56.40;;;;;;5027690;28;20245;-64
2022/03/06 06:27:17;;;;;;;20.23;11.50;;;-2.50;56.70;;;;;;5028727;28;20191;-65
2022/03/06 06:29:44;;;;;;;24.75;13.20;;;-2.40;56.60;;;;;;5028250;28;20843;-64
2022/03/06 06:32:11;;;;;;;32.40;14.73;;;-2.20;56.50;;;;;;5028537;28;20203;-64
2022/03/06 06:34:38;;;;;;;30.20;16.70;;;-2.10;56.20;;;;;;5029135;28;20683;-64
2022/03/06 06:37:05;;;;;;;25.70;14.98;;;-2.00;55.70;;;;;;5027959;28;20190;-63
2022/03/06 06:39:34;;;;;;;38.42;15.73;;;-1.90;55.20;;;;;;5028970;28;20191;-65
2022/03/06 06:42:03;;;;;;;23.65;13.68;;;-1.70;55.20;;;;;;5026696;28;20704;-64
2022/03/06 06:44:32;;;;;;;18.38;11.98;;;-1.50;55.20;;;;;;5028353;28;20265;-63
2022/03/06 06:46:59;;;;;;;24.10;12.38;;;-1.30;55.10;;;;;;5029038;28;20637;-64
2022/03/06 06:49:26;;;;;;;17.75;12.38;;;-1.20;54.00;;;;;;5027647;28;20202;-64
2022/03/06 06:51:55;;;;;;;18.83;11.00;;;-1.00;54.00;;;;;;5028934;28;20241;-64
2022/03/06 06:54:22;;;;;;;22.27;11.73;;;-0.80;53.30;;;;;;5028724;28;20545;-64
2022/03/06 06:56:55;;;;;;;28.05;12.82;;;-0.70;52.90;;;;;;5028901;28;20198;-64
2022/03/06 06:59:22;;;;;;;19.63;13.35;;;-0.60;52.50;;;;;;5024914;28;20652;-63
2022/03/06 07:01:49;;;;;;;24.90;13.20;;;-0.50;52.00;;;;;;5029322;28;20628;-63
2022/03/06 07:04:17;;;;;;;21.35;13.65;;;-0.50;52.00;;;;;;5028105;28;20604;-63
2022/03/06 07:06:44;;;;;;;26.65;14.43;;;-0.30;52.30;;;;;;5028619;28;20323;-64
2022/03/06 07:09:11;;;;;;;22.08;14.05;;;-0.10;51.90;;;;;;5024734;28;20194;-64
2022/03/06 07:11:38;;;;;;;22.67;14.10;;;0.20;51.50;;;;;;5029366;28;20195;-64
2022/03/06 07:14:08;;;;;;;22.95;13.23;;;0.40;50.90;;;;;;5021435;28;20207;-64
2022/03/06 07:16:36;;;;;;;24.65;12.30;;;0.60;50.40;;;;;;5025347;28;20191;-66
2022/03/06 07:19:03;;;;;;;23.17;12.35;;;0.80;50.50;;;;;;5028643;28;20191;-64
2022/03/06 07:21:30;;;;;;;24.73;14.63;;;1.10;49.60;;;;;;5028617;28;20223;-70
2022/03/06 07:23:57;;;;;;;27.30;14.20;;;1.30;48.50;;;;;;5028373;28;20922;-69
2022/03/06 07:26:24;;;;;;;28.63;20.20;;;;;;;;;;5028134;28;20537;-64
2022/03/06 07:28:51;;;;;;;28.02;16.23;;;;;;;;;;5028767;28;20438;-64
2022/03/06 07:31:20;;;;;;;21.58;14.00;;;;;;;;;;5029681;28;20245;-64
2022/03/06 07:33:47;;;;;;;23.20;15.63;;;;;;;;;;5028663;28;20191;-64
2022/03/06 07:36:15;;;;;;;25.17;16.23;;;;;;;;;;5030015;28;20197;-64
2022/03/06 07:38:42;;;;;;;23.50;15.13;;;;;;;;;;5021702;28;20187;-64
2022/03/06 07:41:11;;;;;;;20.98;13.10;;;;;;;;;;5029811;28;20350;-65
2022/03/06 07:43:41;;;;;;;22.38;17.48;;;;;;;;;;5030281;28;20252;-64
2022/03/06 07:46:08;;;;;;;19.52;13.35;;;;;;;;;;5029189;28;20647;-64
2022/03/06 07:48:37;;;;;;;17.17;12.35;;;;;;;;;;5027902;28;20667;-64
2022/03/06 07:51:05;;;;;;;18.85;13.25;;;;;;;;;;5022151;28;20187;-64
2022/03/06 07:53:32;;;;;;;19.73;12.60;;;;;;;;;;5026128;28;20530;-64
2022/03/06 07:55:59;;;;;;;20.50;13.77;;;;;;;;;;5028782;28;20274;-64
2022/03/06 07:58:27;;;;;;;22.13;13.30;;;;;;;;;;5030165;28;20276;-66
2022/03/06 08:00:54;;;;;;;22.20;12.13;;;;;;;;;;5026051;28;20218;-64
2022/03/06 08:03:21;;;;;;;20.45;13.80;;;;;;;;;;5029049;28;20187;-65
2022/03/06 08:05:50;;;;;;;22.52;14.43;;;;;;;;;;5028828;28;20650;-64
2022/03/06 08:08:17;;;;;;;46.75;25.83;;;;;;;;;;5018457;28;20191;-66
2022/03/06 08:10:45;;;;;;;32.10;19.45;;;;;;;;;;5029651;28;20191;-65
2022/03/06 08:13:12;;;;;;;21.50;11.95;;;;;;;;;;5028485;28;20246;-66
2022/03/06 08:15:39;;;;;;;26.02;18.17;;;;;;;;;;5029036;28;20215;-65
2022/03/06 08:18:06;;;;;;;60.20;29.70;;;;;;;;;;5028634;28;20310;-64
2022/03/06 08:20:34;;;;;;;20.77;13.60;;;;;;;;;;5029140;28;20190;-64
2022/03/06 08:23:02;;;;;;;20.30;13.80;;;;;;;;;;5024572;28;20192;-64
2022/03/06 08:25:30;;;;;;;21.02;14.40;;;;;;;;;;5028402;28;20187;-69
2022/03/06 08:27:57;;;;;;;21.20;13.38;;;;;;;;;;5029702;28;20203;-65
2022/03/06 08:30:25;;;;;;;73.75;38.38;;;;;;;;;;5026980;28;20727;-64
2022/03/06 08:32:52;;;;;;;20.92;14.27;;;;;;;;;;5028046;28;20195;-65
2022/03/06 08:35:19;;;;;;;29.30;18.08;;;;;;;;;;5027183;28;20261;-67
2022/03/06 08:37:47;;;;;;;21.25;13.63;;;;;;;;;;5028945;28;20191;-65
2022/03/06 08:40:36;;;;;;;23.73;13.60;;;;;;;;;;5032538;28;20274;-66
2022/03/06 08:43:03;;;;;;;23.52;14.75;;;;;;;;;;5026353;28;20215;-64
2022/03/06 08:45:30;;;;;;;23.38;13.57;;;;;;;;;;5031664;28;20509;-63
2022/03/06 08:47:58;;;;;;;28.20;17.75;;;;;;;;;;5026692;28;20191;-63
2022/03/06 08:50:25;;;;;;;22.33;14.00;;;;;;;;;;5031459;28;20191;-63
2022/03/06 08:52:52;;;;;;;26.80;15.85;;;;;;;;;;5030931;28;20191;-64
2022/03/06 08:55:21;;;;;;;25.75;14.90;;;;;;;;;;5031186;28;20676;-68
2022/03/06 08:57:48;;;;;;;25.23;15.95;;;;;;;;;;5026229;28;20193;-63
2022/03/06 09:00:16;;;;;;;23.83;14.48;;;;;;;;;;5027149;28;20195;-64
2022/03/06 09:02:43;;;;;;;29.38;15.40;;;;;;;;;;5029614;28;20306;-63
2022/03/06 09:05:11;;;;;;;23.55;14.18;;;;;;;;;;5031371;28;20203;-63
2022/03/06 09:07:38;;;;;;;25.10;14.93;;;;;;;;;;5030202;28;20269;-64
2022/03/06 09:10:06;;;;;;;22.52;13.77;;;;;;;;;;5030474;28;20199;-63
2022/03/06 09:12:34;;;;;;;26.05;15.80;;;;;;;;;;5031097;28;20203;-64
2022/03/06 09:15:02;;;;;;;22.40;13.07;;;;;;;;;;5026023;28;20219;-63
2022/03/06 09:17:29;;;;;;;32.42;13.80;;;;;;;;;;5030508;28;20195;-63
2022/03/06 09:19:56;;;;;;;19.80;13.07;;;;;;;;;;5030076;28;20210;-63
2022/03/06 09:22:24;;;;;;;21.23;14.55;;;;;;;;;;5030902;28;20226;-63
2022/03/06 09:24:51;;;;;;;22.70;14.05;;;;;;;;;;5029326;28;20221;-64
2022/03/06 09:27:19;;;;;;;24.58;14.50;;;;;;;;;;5030799;28;20198;-63
2022/03/06 09:29:47;;;;;;;28.17;16.02;;;;;;;;;;5030226;28;20191;-64
2022/03/06 09:32:15;;;;;;;25.88;16.48;;;;;;;;;;5030862;28;20191;-63
2022/03/06 09:34:43;;;;;;;26.50;16.00;;;;;;;;;;5026353;28;20194;-65
2022/03/06 09:37:10;;;;;;;27.63;16.55;;;;;;;;;;5030631;28;20195;-64
2022/03/06 09:39:37;;;;;;;24.63;14.48;;;;;;;;;;5028466;28;20211;-64
2022/03/06 09:42:06;;;;;;;24.02;14.65;;;;;;;;;;5029494;28;20222;-63
2022/03/06 09:44:36;;;;;;;27.40;14.80;;;;;;;;;;5029789;28;20548;-64
2022/03/06 09:47:06;;;;;;;21.70;13.15;;;;;;;;;;5030778;28;20195;-63
2022/03/06 09:49:34;;;;;;;24.90;14.80;;;;;;;;;;5029511;28;20554;-63
2022/03/06 09:52:03;;;;;;;22.38;14.13;;;;;;;;;;5030770;28;20650;-63
2022/03/06 09:54:31;;;;;;;24.20;15.30;;;;;;;;;;5025938;28;20195;-63
2022/03/06 09:57:00;;;;;;;23.40;14.68;;;;;;;;;;5028055;28;21243;-63
2022/03/06 09:59:27;;;;;;;28.73;15.90;;;;;;;;;;5030991;28;20241;-64
2022/03/06 10:02:00;;;;;;;22.80;14.80;;;;;;;;;;5026358;28;20214;-64
2022/03/06 10:04:30;;;;;;;30.20;16.15;;;;;;;;;;5030387;28;20199;-64
2022/03/06 10:07:05;;;;;;;22.67;14.57;;;;;;;;;;5029640;28;20305;-63
2022/03/06 10:09:33;;;;;;;25.20;16.27;;;;;;;;;;5030042;28;20202;-64
2022/03/06 10:12:00;;;;;;;25.00;15.70;;;;;;;;;;5028645;28;21132;-64
2022/03/06 10:14:35;;;;;;;28.73;14.73;;;;;;;;;;5030065;28;20626;-65
2022/03/06 10:17:15;;;;;;;27.92;18.92;;;;;;;;;;5030044;28;20220;-64
2022/03/06 10:20:03;;;;;;;24.83;15.50;;;;;;;;;;5030607;28;20190;-65
2022/03/06 10:22:33;;;;;;;28.40;15.10;;;;;;;;;;5025441;28;20218;-64
2022/03/06 10:25:01;;;;;;;27.05;14.98;;;;;;;;;;5030810;28;20290;-63
2022/03/06 10:27:45;;;;;;;22.35;14.52;;;;;;;;;;5026123;28;20188;-64
2022/03/06 10:30:26;;;;;;;22.40;13.90;;;;;;;;;;5031076;28;20198;-65
2022/03/06 10:32:53;;;;;;;21.92;14.20;;;;;;;;;;5030067;28;20202;-64
2022/03/06 10:35:21;;;;;;;27.48;15.73;;;;;;;;;;5029208;28;20221;-64
2022/03/06 10:37:50;;;;;;;22.25;14.40;;;;;;;;;;5031564;28;20274;-64
2022/03/06 10:40:32;;;;;;;21.52;14.18;;;;;;;;;;5026387;28;20218;-64
2022/03/06 10:42:59;;;;;;;31.67;17.20;;;1.70;48.70;;;;;;5027795;28;20273;-63
2022/03/06 10:45:27;;;;;;;22.27;15.32;;;11.10;45.00;;;;;;5026865;28;20295;-64
2022/03/06 10:47:55;;;;;;;20.38;14.63;;;15.50;33.70;;;;;;5030304;28;20194;-64
2022/03/06 10:50:26;;;;;;;20.42;15.85;;;18.50;25.30;;;;;;5030190;28;20252;-65
2022/03/06 10:52:54;;;;;;;19.52;14.27;;;19.30;21.90;;;;;;5029958;28;20214;-65
2022/03/06 10:55:35;;;;;;;20.73;16.73;;;18.40;20.10;;;;;;5026794;28;20638;-64
2022/03/06 10:58:04;;;;;;;20.50;16.25;;;19.00;21.10;;;;;;5030287;28;20203;-65
2022/03/06 11:00:32;;;;;;;19.80;16.20;;;20.90;20.80;;;;;;5028851;28;20280;-64
2022/03/06 11:03:04;;;;;;;18.23;15.27;;;23.30;18.60;;;;;;5028320;28;20500;-64
2022/03/06 11:05:33;;;;;;;17.90;15.70;;;23.40;16.10;;;;;;5030958;28;20852;-64
2022/03/06 11:08:03;;;;;;;15.60;13.23;;;23.30;17.30;;;;;;5026458;28;20441;-64
2022/03/06 11:10:30;;;;;;;16.20;13.90;;;25.00;15.90;;;;;;5030508;28;20541;-65
2022/03/06 11:12:58;;;;;;;17.03;14.53;;;26.60;14.80;;;;;;5028776;28;20550;-65
2022/03/06 11:15:25;;;;;;;19.43;15.70;;;28.40;14.10;;;;;;5027804;28;20476;-65
2022/03/06 11:17:53;;;;;;;16.00;14.20;;;29.10;11.80;;;;;;5028947;28;20532;-65
2022/03/06 11:20:20;;;;;;;17.63;14.03;;;27.80;11.90;;;;;;5029029;28;20509;-65
2022/03/06 11:22:53;;;;;;;16.57;14.77;;;27.40;12.50;;;;;;5030707;28;20500;-64
2022/03/06 11:25:26;;;;;;;16.70;14.87;;;28.30;11.90;;;;;;5029914;28;20963;-65
2022/03/06 11:28:06;;;;;;;16.90;15.10;;;27.10;11.20;;;;;;5021790;28;20911;-64
2022/03/06 11:30:33;;;;;;;16.90;14.03;;;24.90;11.70;;;;;;5022572;28;20436;-65
2022/03/06 11:33:04;;;;;;;17.40;14.53;;;23.20;12.80;;;;;;5024348;28;20473;-64
2022/03/06 11:35:33;;;;;;;17.07;14.53;;;21.30;13.20;;;;;;5026603;28;21022;-64
2022/03/06 11:38:02;;;;;;;15.33;13.70;;;19.40;14.10;;;;;;5030544;28;20499;-64
2022/03/06 11:40:52;;;;;;;15.50;13.60;;;17.70;15.60;;;;;;5029899;28;20802;-63
2022/03/06 11:43:33;;;;;;;20.33;14.37;;;16.70;17.60;;;;;;5019972;28;20524;-64
2022/03/06 11:46:12;;;;;;;19.90;17.20;;;16.60;19.10;;;;;;5030205;28;20530;-63
2022/03/06 11:49:13;;;;;;;19.87;16.73;;;17.00;18.00;;;;;;5019735;28;20448;-63
2022/03/06 11:51:47;;;;;;;17.23;12.77;;;16.10;17.60;;;;;;5017412;28;20446;-63
2022/03/06 11:54:17;;;;;;;17.50;12.55;;;15.10;17.70;;;;;;5020283;28;20281;-65
2022/03/06 11:57:04;;;;;;;17.70;12.85;;;14.10;18.60;;;;;;5020842;28;20303;-64
2022/03/06 11:59:47;;;;;;;19.17;13.77;;;13.40;19.30;;;;;;5016970;28;20234;-64
2022/03/06 12:02:19;;;;;;;21.20;14.30;;;12.90;20.10;;;;;;5023432;28;20278;-65
2022/03/06 12:04:52;;;;;;;18.80;13.02;;;12.20;21.10;;;;;;5023093;28;20290;-64
2022/03/06 12:07:21;;;;;;;18.30;12.38;;;11.70;21.60;;;;;;5018281;28;21668;-64
2022/03/06 12:09:51;;;;;;;15.48;11.95;;;11.20;22.10;;;;;;5023865;28;20200;-63
2022/03/06 12:12:21;;;;;;;16.55;11.30;;;10.70;22.70;;;;;;5017411;28;20225;-68
2022/03/06 12:14:50;;;;;;;14.18;10.23;;;12.50;26.60;;;;;;5022210;28;20234;-63
2022/03/06 12:17:29;;;;;;;16.17;11.90;;;16.50;22.60;;;;;;5022527;28;20210;-64
2022/03/06 12:20:14;;;;;;;16.42;12.07;;;19.90;17.90;;;;;;5022826;28;20246;-66
2022/03/06 12:22:47;;;;;;;15.67;12.87;;;22.40;15.90;;;;;;5024774;28;20588;-65
2022/03/06 12:25:31;;;;;;;14.53;11.87;;;24.60;14.40;;;;;;5020556;28;20439;-68
2022/03/06 12:28:24;;;;;;;15.40;12.97;;;25.80;13.70;;;;;;5024034;28;20438;-64
2022/03/06 12:30:52;;;;;;;15.53;12.17;;;27.10;12.20;;;;;;5024133;28;20446;-64
2022/03/06 12:33:39;;;;;;;14.20;12.70;;;27.90;12.10;;;;;;5019167;28;20556;-64
2022/03/06 12:36:24;;;;;;;12.63;11.33;;;29.50;12.20;;;;;;5022106;28;20496;-65
2022/03/06 12:38:57;;;;;;;14.23;12.27;;;30.60;10.20;;;;;;5021773;28;20453;-64
2022/03/06 12:41:25;;;;;;;16.90;12.13;;;29.90;9.50;;;;;;5026138;28;20937;-64
2022/03/06 12:44:03;;;;;;;14.77;13.00;;;30.30;9.10;;;;;;5022279;28;20438;-64
2022/03/06 12:46:31;;;;;;;14.13;12.20;;;30.10;9.00;;;;;;5022520;28;20434;-64
2022/03/06 12:48:59;;;;;;;12.93;11.63;;;29.90;8.60;;;;;;5025409;28;20837;-64
2022/03/06 12:51:38;;;;;;;14.77;13.20;;;30.40;9.70;;;;;;5023081;28;20936;-64
2022/03/06 12:54:17;;;;;;;13.43;10.77;;;30.80;8.90;;;;;;5023289;28;20509;-66
2022/03/06 12:56:44;;;;;;;12.53;11.00;;;30.90;9.10;;;;;;5022405;28;20461;-64
2022/03/06 12:59:16;;;;;;;12.23;10.73;;;31.10;8.80;;;;;;5023585;28;20453;-66
2022/03/06 13:01:45;;;;;;;12.83;11.43;;;31.10;7.90;;;;;;5027318;28;20447;-66
2022/03/06 13:04:14;;;;;;;11.60;10.50;;;28.80;7.30;;;;;;5025171;28;20452;-65